Time;durP1;ratioP1;P1;durP2;ratioP2;P2;SDS_P1;SDS_P2;PMS_P1;PMS_P2;Temp;Humidity;BMP_temperature;BMP_pressure;BME280_temperature;BME280_humidity;BME280_pressure;Samples;Min_cycle;Max_cycle;Signal;HPM_P1;HPM_P2
2022/11/27 00:00:59;;;;;;;254.43;85.80;;;;;;;12.32;69.97;102175.06;4979994;28;119407;-75
2022/11/27 00:03:25;;;;;;;271.45;86.60;;;;;;;12.28;70.14;102161.38;4978705;28;119724;-75
2022/11/27 00:05:56;;;;;;;258.58;86.68;;;;;;;12.34;69.82;102167.16;4980809;28;119714;-75
2022/11/27 00:08:24;;;;;;;310.83;90.47;;;;;;;12.36;69.70;102169.50;4985179;28;119588;-75
2022/11/27 00:10:55;;;;;;;257.50;86.18;;;;;;;12.34;69.97;102172.66;4961963;28;119833;-75
2022/11/27 00:13:20;;;;;;;260.00;87.10;;;;;;;12.33;70.20;102167.59;4982829;28;121500;-75
2022/11/27 00:15:46;;;;;;;286.38;89.43;;;;;;;12.37;70.11;102173.78;4987758;28;119757;-75
2022/11/27 00:18:12;;;;;;;254.05;87.82;;;;;;;12.36;70.05;102186.00;4985875;28;120230;-75
2022/11/27 00:20:38;;;;;;;292.17;91.97;;;;;;;12.37;70.08;102193.06;4966855;28;119872;-75
2022/11/27 00:23:04;;;;;;;265.80;91.30;;;;;;;12.33;70.22;102186.84;4958544;28;119484;-77
2022/11/27 00:25:30;;;;;;;292.80;90.20;;;;;;;12.32;70.31;102182.56;4984981;28;119638;-77
2022/11/27 00:27:56;;;;;;;271.42;90.53;;;;;;;12.35;70.04;102189.97;4984697;28;120191;-75
2022/11/27 00:30:22;;;;;;;287.40;90.97;;;;;;;12.40;70.13;102200.44;4967426;28;119965;-74
2022/11/27 00:32:47;;;;;;;263.80;90.38;;;;;;;12.41;70.03;102199.25;4983243;28;121145;-75
2022/11/27 00:35:13;;;;;;;260.52;91.07;;;;;;;12.39;70.14;102194.19;4981883;28;119495;-75
2022/11/27 00:37:39;;;;;;;259.92;90.55;;;;;;;12.37;69.78;102198.56;4981629;28;120108;-75
2022/11/27 00:40:05;;;;;;;273.00;92.50;;;;;;;12.38;69.90;102186.34;4986299;28;119718;-75
2022/11/27 00:42:31;;;;;;;274.75;92.35;;;;;;;12.42;69.88;102195.28;4983458;28;120159;-75
2022/11/27 00:44:57;;;;;;;266.45;92.53;;;;;;;12.42;70.02;102196.06;4985000;28;119828;-75
2022/11/27 00:47:22;;;;;;;273.38;94.28;;;;;;;12.40;69.84;102186.69;4985519;28;119757;-75
2022/11/27 00:49:48;;;;;;;271.95;93.13;;;;;;;12.36;69.97;102180.50;4984795;28;119330;-75
2022/11/27 00:52:14;;;;;;;278.00;96.27;;;;;;;12.41;70.01;102193.75;4981716;28;119619;-75
2022/11/27 00:54:40;;;;;;;271.27;94.70;;;;;;;12.42;69.85;102201.56;4961644;28;119607;-75
2022/11/27 00:57:06;;;;;;;273.33;93.87;;;;;;;12.44;70.12;102198.41;4987927;28;119327;-75
2022/11/27 00:59:32;;;;;;;273.65;95.32;;;;;;;12.40;69.91;102192.97;4985779;28;119759;-75
2022/11/27 01:01:57;;;;;;;292.83;95.00;;;;;;;12.43;69.85;102191.34;4984794;28;119684;-75
2022/11/27 01:04:23;;;;;;;283.40;96.63;;;;;;;12.40;70.09;102190.22;4981749;28;120329;-75
2022/11/27 01:06:49;;;;;;;279.40;95.13;;;;;;;12.33;70.05;102179.38;4950820;28;119914;-75
2022/11/27 01:09:15;;;;;;;268.70;94.83;;;;;;;12.36;70.13;102183.25;4967333;28;119836;-75
2022/11/27 01:11:41;;;;;;;265.85;93.10;;;;;;;12.40;69.83;102183.94;4977951;28;121232;-75
2022/11/27 01:14:12;;;;;;;246.98;91.45;;;;;;;12.35;70.08;102170.69;4965545;28;120287;-75
2022/11/27 01:16:38;;;;;;;229.60;88.68;;;;;;;12.36;69.62;102164.00;4989057;28;119837;-75
2022/11/27 01:19:04;;;;;;;248.00;90.80;;;;;;;12.35;69.80;102156.94;4972513;28;120139;-75
2022/11/27 01:21:32;;;;;;;243.98;92.00;;;;;;;12.40;69.49;102165.44;4995207;28;119421;-76
2022/11/27 01:23:59;;;;;;;237.32;90.50;;;;;;;12.37;70.05;102166.31;4972718;28;119650;-75
2022/11/27 01:26:25;;;;;;;232.18;90.57;;;;;;;12.39;69.66;102163.13;4968142;28;120125;-76
2022/11/27 01:28:56;;;;;;;221.52;87.95;;;;;;;12.38;69.87;102165.09;4975005;28;119536;-76
2022/11/27 01:31:30;;;;;;;220.43;87.85;;;;;;;12.37;69.45;102165.53;4975658;28;120263;-75
2022/11/27 01:33:58;;;;;;;226.23;89.82;;;;;;;12.41;69.64;102166.22;4988117;28;120415;-76
2022/11/27 01:36:25;;;;;;;223.63;88.03;;;;;;;12.45;69.72;102170.44;4956986;28;119459;-75
2022/11/27 01:38:51;;;;;;;226.82;88.60;;;;;;;12.44;69.20;102157.13;4960635;28;119740;-75
2022/11/27 01:41:31;;;;;;;211.57;87.38;;;;;;;12.47;69.84;102172.78;4969627;28;119598;-76
2022/11/27 01:44:03;;;;;;;230.95;87.93;;;;;;;12.49;69.72;102173.88;4984982;28;119914;-75
2022/11/27 01:46:48;;;;;;;213.60;86.03;;;;;;;12.53;69.35;102171.06;4955771;28;119533;-75
2022/11/27 01:49:48;;;;;;;210.48;87.32;;;;;;;12.54;69.36;102164.38;4982806;28;119307;-75
2022/11/27 01:52:30;;;;;;;207.55;87.70;;;;;;;12.47;69.13;102159.78;4978315;28;119793;-75
2022/11/27 01:55:22;;;;;;;203.57;87.80;;;;;;;12.53;69.02;102151.78;4944508;28;120105;-75
2022/11/27 01:57:53;;;;;;;203.37;87.80;;;;;;;12.51;68.91;102156.94;4988475;28;119926;-75
2022/11/27 02:00:19;;;;;;;196.13;84.60;;;;;;;12.51;69.18;102160.47;4983254;28;119635;-75
2022/11/27 02:02:47;;;;;;;195.57;84.43;;;;;;;12.50;68.99;102163.66;4983801;28;119817;-75
2022/11/27 02:05:17;;;;;;;184.23;83.15;;;;;;;12.44;69.22;102152.38;4979635;28;119881;-76
2022/11/27 02:07:44;;;;;;;185.30;82.63;;;;;;;12.46;69.07;102152.72;4992505;28;119898;-76
2022/11/27 02:10:11;;;;;;;185.17;82.97;;;;;;;12.42;69.51;102145.75;4969023;28;121208;-75
2022/11/27 02:12:51;;;;;;;192.65;81.97;;;;;;;12.41;69.44;102155.22;4979483;28;119516;-75
2022/11/27 02:15:30;;;;;;;179.18;80.53;;;;;;;12.47;69.18;102157.03;4932485;28;120055;-76
2022/11/27 02:18:02;;;;;;;173.87;76.73;;;;;;;12.48;69.28;102153.06;4964046;28;120275;-75
2022/11/27 02:20:27;;;;;;;161.75;75.25;;;;;;;12.48;68.72;102144.03;4987515;28;120253;-75
2022/11/27 02:22:53;;;;;;;151.80;71.38;;;;;;;12.49;68.92;102153.84;4983028;28;119658;-75
2022/11/27 02:25:28;;;;;;;151.65;68.75;;;;;;;12.43;68.66;102141.81;4980680;28;120044;-75
2022/11/27 02:28:15;;;;;;;152.48;69.15;;;;;;;12.39;68.59;102146.63;4984127;28;119573;-75
2022/11/27 02:30:48;;;;;;;146.33;69.37;;;;;;;12.32;68.78;102149.53;4978489;28;120636;-76
2022/11/27 02:33:34;;;;;;;146.85;68.25;;;;;;;12.27;68.80;102148.03;4969143;28;119972;-75
2022/11/27 02:36:06;;;;;;;153.27;68.97;;;;;;;12.28;68.92;102141.34;4962482;28;119543;-75
2022/11/27 02:39:05;;;;;;;148.25;68.18;;;;;;;12.22;68.81;102132.81;4958432;28;119963;-75
2022/11/27 02:41:48;;;;;;;138.63;66.00;;;;;;;12.24;68.75;102146.16;4982505;28;119885;-75
2022/11/27 02:44:17;;;;;;;148.27;66.88;;;;;;;12.23;68.73;102144.59;4978704;28;119760;-75
2022/11/27 02:46:45;;;;;;;158.02;67.95;;;;;;;12.12;68.72;102135.81;4964949;28;120233;-75
2022/11/27 02:49:15;;;;;;;141.97;67.07;;;;;;;12.11;68.95;102140.53;4989997;28;119413;-76
2022/11/27 02:51:47;;;;;;;145.45;67.68;;;;;;;12.08;69.07;102141.38;4963900;28;119489;-75
2022/11/27 02:54:19;;;;;;;141.95;67.75;;;;;;;12.06;69.21;102141.00;4963806;28;122647;-76
2022/11/27 02:56:47;;;;;;;138.90;67.93;;;;;;;12.08;69.07;102121.38;4983817;28;120630;-75
2022/11/27 02:59:15;;;;;;;146.52;69.25;;;;;;;12.09;68.59;102123.69;4985061;28;120011;-75
2022/11/27 03:01:47;;;;;;;144.03;68.13;;;;;;;12.11;68.57;102121.28;4964678;28;120622;-75
2022/11/27 03:04:19;;;;;;;151.90;68.47;;;;;;;12.10;68.97;102125.25;4985111;28;119674;-76
2022/11/27 03:06:51;;;;;;;146.38;68.85;;;;;;;12.11;68.85;102128.75;4984249;28;120164;-75
2022/11/27 03:09:23;;;;;;;138.85;67.25;;;;;;;12.09;68.87;102133.91;4964866;28;120471;-76
2022/11/27 03:11:49;;;;;;;136.18;66.07;;;;;;;12.11;69.03;102128.75;4972863;28;120152;-76
2022/11/27 03:14:16;;;;;;;128.85;65.35;;;;;;;12.13;69.30;102116.13;4965581;28;119951;-76
2022/11/27 03:16:54;;;;;;;131.80;65.43;;;;;;;12.17;68.98;102129.81;4965236;28;120110;-76
2022/11/27 03:19:29;;;;;;;134.73;66.35;;;;;;;12.19;68.93;102127.41;4965773;28;119613;-76
2022/11/27 03:22:00;;;;;;;127.53;65.68;;;;;;;12.19;68.66;102117.16;4981380;28;119919;-75
2022/11/27 03:24:28;;;;;;;137.67;66.10;;;;;;;12.21;68.45;102119.50;4982509;28;120072;-75
2022/11/27 03:26:57;;;;;;;128.77;65.00;;;;;;;12.18;68.59;102125.84;4961086;28;119762;-76
2022/11/27 03:29:30;;;;;;;129.30;65.00;;;;;;;12.19;68.28;102125.41;4966489;28;122046;-76
2022/11/27 03:31:56;;;;;;;131.50;66.00;;;;;;;12.15;68.36;102110.19;4984389;28;120066;-76
2022/11/27 03:34:23;;;;;;;126.32;64.35;;;;;;;12.05;68.57;102089.19;4978735;28;119810;-75
2022/11/27 03:36:48;;;;;;;125.23;64.10;;;;;;;12.14;68.31;102103.91;4984395;28;120338;-75
2022/11/27 03:39:14;;;;;;;121.65;63.42;;;;;;;12.18;68.40;102110.13;4981245;28;120078;-76
2022/11/27 03:42:09;;;;;;;126.28;63.80;;;;;;;12.19;68.37;102116.41;4964318;28;121377;-75
2022/11/27 03:44:44;;;;;;;127.95;63.92;;;;;;;12.19;68.28;102105.38;4981952;28;120127;-75
2022/11/27 03:47:35;;;;;;;121.32;63.05;;;;;;;12.19;68.04;102108.13;4976423;28;120304;-75
2022/11/27 03:50:31;;;;;;;122.35;63.00;;;;;;;12.18;68.27;102103.84;4977909;28;119921;-75
2022/11/27 03:53:49;;;;;;;114.00;60.30;;;;;;;12.12;68.23;102103.56;4960467;28;120179;-76
2022/11/27 03:56:39;;;;;;;125.47;62.03;;;;;;;12.15;68.32;102097.22;4937498;28;120031;-76
2022/11/27 03:59:21;;;;;;;121.10;61.50;;;;;;;12.10;67.96;102083.19;4956631;28;120125;-76
2022/11/27 04:01:46;;;;;;;120.18;61.92;;;;;;;11.98;68.24;102070.88;4981490;28;120217;-75
2022/11/27 04:04:12;;;;;;;119.60;61.90;;;;;;;12.05;67.90;102095.47;4978155;28;120855;-75
2022/11/27 04:06:38;;;;;;;119.53;60.75;;;;;;;12.02;68.28;102096.31;4968868;28;120154;-75
2022/11/27 04:09:04;;;;;;;117.45;61.00;;;;;;;12.00;68.28;102093.22;4985086;28;119494;-75
2022/11/27 04:11:30;;;;;;;107.85;59.40;;;;;;;12.00;68.31;102101.47;4967504;28;121888;-75
2022/11/27 04:13:57;;;;;;;117.57;61.17;;;;;;;11.98;68.25;102104.66;4983182;28;119778;-75
2022/11/27 04:16:23;;;;;;;114.03;60.58;;;;;;;11.97;68.19;102105.84;4985897;28;120064;-75
2022/11/27 04:18:49;;;;;;;114.00;59.75;;;;;;;11.98;68.21;102103.88;4986755;28;119791;-75
2022/11/27 04:21:15;;;;;;;118.40;61.70;;;;;;;12.00;68.38;102101.47;4983555;28;119577;-75
2022/11/27 04:23:42;;;;;;;116.07;59.90;;;;;;;11.97;68.42;102085.81;4959983;28;122900;-75
2022/11/27 04:26:08;;;;;;;117.95;60.90;;;;;;;11.88;68.38;102069.91;4968999;28;120252;-75
2022/11/27 04:28:34;;;;;;;119.97;60.60;;;;;;;11.90;68.24;102077.72;4986014;28;120112;-75
2022/11/27 04:31:00;;;;;;;113.05;57.88;;;;;;;11.87;68.29;102076.59;4985400;28;119906;-75
2022/11/27 04:33:51;;;;;;;110.32;58.13;;;;;;;11.74;68.35;102053.69;4962270;28;120207;-76
2022/11/27 04:36:17;;;;;;;108.75;58.13;;;;;;;11.78;68.21;102059.91;4966353;28;120667;-75
2022/11/27 04:38:43;;;;;;;104.97;57.95;;;;;;;11.76;68.21;102056.78;4985733;28;119763;-75
2022/11/27 04:41:08;;;;;;;103.85;58.58;;;;;;;11.77;68.43;102054.78;4989139;28;119804;-75
2022/11/27 04:43:34;;;;;;;105.10;57.63;;;;;;;11.76;68.31;102061.50;4983795;28;119820;-75
2022/11/27 04:46:00;;;;;;;102.93;56.77;;;;;;;11.74;68.71;102052.91;4962460;28;120067;-75
2022/11/27 04:48:25;;;;;;;113.73;58.43;;;;;;;11.70;68.31;102055.72;4981276;28;119492;-75
2022/11/27 04:50:53;;;;;;;110.33;57.37;;;;;;;11.70;67.88;102055.72;4965805;28;120018;-75
2022/11/27 04:53:19;;;;;;;106.68;55.67;;;;;;;11.66;68.42;102047.56;4980652;28;119906;-75
2022/11/27 04:55:45;;;;;;;106.22;57.00;;;;;;;11.71;67.97;102051.78;4981458;28;120211;-76
2022/11/27 04:58:11;;;;;;;98.65;53.55;;;;;;;11.68;67.94;102034.16;4969778;28;120908;-75
2022/11/27 05:00:36;;;;;;;97.43;53.88;;;;;;;11.63;67.91;102026.44;4983132;28;120166;-75
2022/11/27 05:03:02;;;;;;;96.32;52.58;;;;;;;11.65;67.73;102029.53;4985196;28;119728;-75
2022/11/27 05:05:28;;;;;;;104.00;53.63;;;;;;;11.61;67.43;102020.59;4967529;28;119709;-75
2022/11/27 05:07:53;;;;;;;104.83;52.47;;;;;;;11.57;66.97;102017.09;4966156;28;119401;-76
2022/11/27 05:10:19;;;;;;;101.77;52.67;;;;;;;11.50;67.04;102022.75;4985464;28;119961;-75
2022/11/27 05:12:45;;;;;;;103.67;55.43;;;;;;;11.42;67.27;102023.34;4967823;28;119956;-75
2022/11/27 05:15:10;;;;;;;106.10;53.93;;;;;;;11.37;67.34;102021.88;4990570;28;119409;-75
2022/11/27 05:17:36;;;;;;;104.50;52.63;;;;;;;11.31;66.95;102023.53;4985193;28;121133;-75
2022/11/27 05:20:02;;;;;;;105.97;52.53;;;;;;;11.25;67.16;102014.25;4989445;28;120151;-76
2022/11/27 05:22:28;;;;;;;102.97;52.63;;;;;;;11.16;67.28;102014.81;4990207;28;119424;-75
2022/11/27 05:24:54;;;;;;;95.32;52.00;;;;;;;11.12;67.45;102013.31;4986773;28;120375;-76
2022/11/27 05:27:20;;;;;;;101.82;51.75;;;;;;;11.06;67.39;102002.81;4983657;28;119926;-76
2022/11/27 05:29:46;;;;;;;100.38;50.05;;;;;;;11.02;67.80;102006.84;4985341;28;119311;-75
2022/11/27 05:32:11;;;;;;;101.13;50.10;;;;;;;10.95;67.71;101999.50;4950832;28;119749;-75
2022/11/27 05:34:37;;;;;;;98.90;49.27;;;;;;;10.93;67.47;102003.88;4964347;28;120008;-75
2022/11/27 05:37:03;;;;;;;97.20;49.80;;;;;;;10.92;67.57;102019.56;4969323;28;119629;-75
2022/11/27 05:39:28;;;;;;;98.73;50.73;;;;;;;10.89;67.85;102016.91;4986989;28;119734;-75
2022/11/27 05:41:54;;;;;;;102.23;50.00;;;;;;;10.86;67.49;102018.50;4965082;28;120823;-75
2022/11/27 05:44:22;;;;;;;105.03;50.28;;;;;;;10.84;67.15;102020.88;4991376;28;119824;-75
2022/11/27 05:46:48;;;;;;;108.90;52.08;;;;;;;10.80;67.69;102019.41;4987020;28;120665;-75
2022/11/27 05:49:15;;;;;;;101.53;50.20;;;;;;;10.76;67.46;102019.47;4985014;28;119891;-75
2022/11/27 05:51:41;;;;;;;104.38;50.70;;;;;;;10.74;67.62;102021.84;4968040;28;120014;-75
2022/11/27 05:54:26;;;;;;;98.05;49.90;;;;;;;10.67;67.72;102017.28;4981088;28;119647;-75
2022/11/27 05:56:51;;;;;;;104.13;50.67;;;;;;;10.62;67.69;102017.72;4988087;28;119410;-76
2022/11/27 05:59:17;;;;;;;108.10;52.13;;;;;;;10.59;67.58;102017.78;4982882;28;119780;-76
2022/11/27 06:01:43;;;;;;;106.47;52.30;;;;;;;10.50;67.83;102012.84;4984502;28;120247;-75
2022/11/27 06:04:09;;;;;;;101.20;52.05;;;;;;;10.46;67.81;102009.41;4986328;28;120317;-75
2022/11/27 06:06:34;;;;;;;103.78;53.38;;;;;;;10.45;68.18;102011.38;4988766;28;119719;-75
2022/11/27 06:09:00;;;;;;;108.68;53.60;;;;;;;10.41;68.31;102016.13;4969054;28;120928;-75
2022/11/27 06:11:26;;;;;;;107.30;51.85;;;;;;;10.34;67.80;102005.25;4974253;28;119462;-75
2022/11/27 06:13:51;;;;;;;105.15;51.22;;;;;;;10.34;67.88;102004.47;4984240;28;120099;-75
2022/11/27 06:16:20;;;;;;;97.90;50.57;;;;;;;10.28;68.12;101990.47;4986988;28;119639;-75
2022/11/27 06:18:49;;;;;;;98.05;50.25;;;;;;;10.29;67.53;102005.72;4965893;28;119551;-75
2022/11/27 06:21:15;;;;;;;101.50;49.00;;;;;;;10.26;68.10;101998.34;4981818;28;119666;-75
2022/11/27 06:23:55;;;;;;;103.53;50.13;;;;;;;10.23;67.96;101996.44;4984433;28;119533;-75
2022/11/27 06:26:23;;;;;;;93.70;48.33;;;;;;;10.19;68.15;102001.19;4985854;28;119483;-75
2022/11/27 06:28:55;;;;;;;94.57;48.55;;;;;;;10.16;68.14;102010.22;4951818;28;119975;-76
2022/11/27 06:31:24;;;;;;;93.32;46.55;;;;;;;10.13;68.25;102005.56;4969170;28;119489;-75
2022/11/27 06:33:51;;;;;;;93.20;47.17;;;;;;;10.08;68.12;101992.31;4960449;28;120009;-75
2022/11/27 06:36:18;;;;;;;88.10;44.38;;;;;;;10.08;68.24;101997.81;4967813;28;119666;-75
2022/11/27 06:38:44;;;;;;;85.47;44.67;;;;;;;10.05;67.98;101982.19;4986057;28;119773;-75
2022/11/27 06:41:19;;;;;;;84.70;43.75;;;;;;;10.05;68.23;101993.16;4987703;28;119409;-75
2022/11/27 06:43:46;;;;;;;83.38;42.90;;;;;;;10.01;68.29;101987.72;4968741;28;122323;-75
2022/11/27 06:46:14;;;;;;;75.00;40.42;;;;;;;9.99;68.17;101983.84;4966806;28;119919;-75
2022/11/27 06:48:41;;;;;;;77.35;39.88;;;;;;;9.96;68.01;101981.94;4986823;28;119438;-75
2022/11/27 06:51:10;;;;;;;73.13;38.67;;;;;;;9.93;68.10;101996.44;4970653;28;120864;-75
2022/11/27 06:53:36;;;;;;;79.13;38.47;;;;;;;9.91;68.32;101990.59;4967412;28;119903;-75
2022/11/27 06:56:07;;;;;;;73.47;37.25;;;;;;;9.90;68.25;101989.06;4968235;28;120068;-75
2022/11/27 06:58:34;;;;;;;72.80;37.63;;;;;;;9.87;68.05;101981.66;4986369;28;119925;-75
2022/11/27 07:01:03;;;;;;;70.27;36.43;;;;;;;9.84;68.47;101973.09;4969338;28;119441;-75
2022/11/27 07:03:28;;;;;;;63.37;34.03;;;;;;;9.83;68.43;101970.75;4982521;28;119829;-75
2022/11/27 07:05:58;;;;;;;73.47;35.17;;;;;;;9.83;68.05;101976.25;4971415;28;121331;-75
2022/11/27 07:08:24;;;;;;;68.82;34.83;;;;;;;9.81;68.12;101976.66;4995978;28;120660;-76
2022/11/27 07:10:49;;;;;;;64.35;32.85;;;;;;;9.80;67.67;101972.38;4984141;28;119550;-75
2022/11/27 07:13:15;;;;;;;68.13;34.45;;;;;;;9.79;68.31;101973.56;4989256;28;119364;-75
2022/11/27 07:15:42;;;;;;;62.22;33.88;;;;;;;9.78;67.90;101974.75;4985890;28;119904;-75
2022/11/27 07:18:07;;;;;;;62.15;33.50;;;;;;;9.73;68.23;101977.19;4967383;28;119390;-75
2022/11/27 07:20:33;;;;;;;61.73;32.97;;;;;;;9.75;68.15;101983.78;4951106;28;119777;-75
2022/11/27 07:22:59;;;;;;;65.30;33.33;;;;;;;9.71;67.96;101977.59;4985598;28;120112;-75
2022/11/27 07:25:25;;;;;;;64.43;32.83;;;;;;;9.70;68.46;101978.78;4985749;28;119617;-75
2022/11/27 07:27:50;;;;;;;64.72;32.90;;;;;;;9.63;68.09;101962.41;4968048;28;119520;-75
2022/11/27 07:30:16;;;;;;;59.08;31.67;;;;;;;9.64;68.21;101968.69;4968071;28;120296;-75
2022/11/27 07:32:42;;;;;;;60.47;32.05;;;;;;;9.67;68.43;101968.63;4991648;28;119318;-75
2022/11/27 07:35:08;;;;;;;60.50;31.87;;;;;;;9.65;68.84;101962.78;4968963;28;119797;-75
2022/11/27 07:37:34;;;;;;;66.00;32.13;;;;;;;9.66;68.86;101950.63;4967794;28;119799;-75
2022/11/27 07:39:59;;;;;;;58.25;30.80;;;;;;;9.66;68.90;101950.63;4987308;28;119217;-75
2022/11/27 07:42:26;;;;;;;62.38;30.50;;;;;;;9.62;68.49;101944.44;4984669;28;119809;-75
2022/11/27 07:44:53;;;;;;;59.05;30.70;;;;;;;9.66;68.22;101950.63;4967039;28;119635;-75
2022/11/27 07:47:19;;;;;;;57.03;30.27;;;;;;;9.68;69.02;101950.22;4967653;28;119970;-77
2022/11/27 07:49:45;;;;;;;63.88;31.02;;;;;;;9.68;68.73;101944.75;4986059;28;119853;-77
2022/11/27 07:52:10;;;;;;;56.33;30.53;;;;;;;9.68;68.70;101942.78;4985439;28;119357;-77
2022/11/27 07:54:38;;;;;;;55.60;29.57;;;;;;;9.62;68.50;101921.75;4988266;28;119383;-77
2022/11/27 07:57:04;;;;;;;57.22;30.42;;;;;;;9.71;68.69;101928.28;4984396;28;119491;-77
2022/11/27 07:59:29;;;;;;;55.38;30.23;;;;;;;9.70;68.45;101926.72;4966385;28;119873;-76
2022/11/27 08:01:55;;;;;;;52.90;30.13;;;;;;;9.73;68.77;101925.91;4965623;28;119901;-77
2022/11/27 08:04:21;;;;;;;60.67;30.30;;;;;;;9.77;68.68;101923.09;4983635;28;120136;-77
2022/11/27 08:06:50;;;;;;;55.10;30.33;;;;;;;9.78;68.71;101922.69;4967895;28;120144;-77
2022/11/27 08:09:16;;;;;;;52.58;29.38;;;;;;;9.80;68.82;101917.56;4983757;28;119770;-77
2022/11/27 08:11:41;;;;;;;53.83;30.50;;;;;;;9.80;68.09;101917.56;4984164;28;119722;-77
2022/11/27 08:14:07;;;;;;;53.23;29.20;;;;;;;9.81;68.42;101919.09;4984566;28;119600;-76
2022/11/27 08:16:35;;;;;;;54.35;28.48;;;;;;;9.85;68.30;101930.00;4988116;28;120263;-77
2022/11/27 08:19:01;;;;;;;50.10;28.85;;;;;;;9.92;68.71;101929.13;4984851;28;119600;-77
2022/11/27 08:21:28;;;;;;;53.40;28.73;;;;;;;9.97;68.93;101909.47;4984979;28;119772;-76
2022/11/27 08:23:55;;;;;;;49.17;28.00;;;;;;;10.02;68.53;101912.53;4963439;28;119382;-77
2022/11/27 08:26:21;;;;;;;50.88;27.98;;;;;;;10.08;68.25;101927.28;4966385;28;119687;-77
2022/11/27 08:28:47;;;;;;;51.38;26.83;;;;;;;10.11;68.28;101931.16;4964702;28;121936;-75
2022/11/27 08:31:14;;;;;;;47.85;27.00;;;;;;;10.14;67.89;101938.56;4986021;28;119530;-75
2022/11/27 08:33:40;;;;;;;47.40;25.95;;;;;;;10.16;67.96;101933.44;4951496;28;120027;-75
2022/11/27 08:36:06;;;;;;;43.78;25.95;;;;;;;10.17;67.92;101937.72;4986561;28;120448;-75
2022/11/27 08:38:32;;;;;;;44.13;25.15;;;;;;;10.17;67.72;101924.00;4992112;28;119712;-76
2022/11/27 08:41:00;;;;;;;44.87;25.37;;;;;;;10.22;67.50;101928.31;4987502;28;119546;-75
2022/11/27 08:43:27;;;;;;;43.83;25.40;;;;;;;10.25;67.91;101925.50;4969505;28;119655;-75
2022/11/27 08:45:53;;;;;;;44.88;25.75;;;;;;;10.24;67.54;101923.94;4969947;28;119915;-75
2022/11/27 08:48:20;;;;;;;43.97;25.20;;;;;;;10.27;67.67;101917.63;4985407;28;119966;-75
2022/11/27 08:50:46;;;;;;;41.88;23.80;;;;;;;10.29;67.40;101914.47;4987219;28;119452;-75
2022/11/27 08:53:13;;;;;;;46.90;25.23;;;;;;;10.33;67.19;101913.19;4952621;28;120937;-75
2022/11/27 08:55:39;;;;;;;51.35;30.00;;;;;;;10.37;67.79;101913.91;4984486;28;119763;-75
2022/11/27 08:58:05;;;;;;;46.13;25.67;;;;;;;10.33;67.66;101904.19;4965374;28;120473;-75
2022/11/27 09:00:32;;;;;;;38.92;24.20;;;;;;;10.44;67.37;101904.78;4973199;28;120254;-75
2022/11/27 09:02:59;;;;;;;39.73;23.27;;;;;;;10.45;66.95;101900.84;4968853;28;118656;-75
2022/11/27 09:05:26;;;;;;;39.87;23.67;;;;;;;10.43;67.04;101898.53;4983466;28;119315;-75
2022/11/27 09:07:52;;;;;;;39.42;24.02;;;;;;;10.49;67.23;101896.06;4981699;28;119414;-75
2022/11/27 09:10:18;;;;;;;38.05;23.75;;;;;;;10.50;67.17;101892.13;4983119;28;119798;-75
2022/11/27 09:12:43;;;;;;;42.85;23.25;;;;;;;10.55;67.43;101894.38;4965794;28;120054;-75
2022/11/27 09:15:13;;;;;;;43.30;23.00;;;;;;;10.57;66.91;101896.72;4965372;28;120804;-75
2022/11/27 09:17:38;;;;;;;37.43;22.27;;;;;;;10.65;67.48;101903.63;4983559;28;120047;-75
2022/11/27 09:20:06;;;;;;;39.40;23.23;;;;;;;10.72;67.63;101908.97;4949737;28;120511;-75
2022/11/27 09:22:35;;;;;;;36.73;22.27;;;;;;;10.78;67.16;101912.78;4987905;28;119858;-75
2022/11/27 09:25:01;;;;;;;38.85;23.15;;;;;;;10.84;67.00;101922.06;4982873;28;120147;-76
2022/11/27 09:27:27;;;;;;;36.72;22.67;;;;;;;10.85;66.55;101917.34;4965505;28;119437;-76
2022/11/27 09:29:53;;;;;;;36.37;22.20;;;;;;;10.83;66.33;101908.75;4984042;28;119950;-75
2022/11/27 09:32:18;;;;;;;35.03;21.10;;;;;;;10.92;66.14;101917.22;4949111;28;121192;-76
2022/11/27 09:34:44;;;;;;;36.05;22.25;;;;;;;10.88;66.16;101917.28;4983824;28;119906;-75
2022/11/27 09:37:10;;;;;;;39.00;22.30;;;;;;;10.98;66.69;101915.53;4966042;28;119858;-75
2022/11/27 09:39:36;;;;;;;34.70;21.87;;;;;;;11.00;66.28;101905.66;4984223;28;119752;-75
2022/11/27 09:42:05;;;;;;;36.37;22.30;;;;;;;11.02;65.77;101903.28;4984800;28;119828;-76
2022/11/27 09:44:47;;;;;;;33.95;20.85;;;;;;;11.09;65.36;101902.34;4981589;28;119778;-76
2022/11/27 09:47:16;;;;;;;34.43;21.57;;;;;;;11.09;64.83;101899.59;4948058;28;120237;-75
2022/11/27 09:49:49;;;;;;;32.95;20.75;;;;;;;11.05;64.50;101901.66;4983387;28;119349;-75
2022/11/27 09:52:27;;;;;;;34.93;21.87;;;;;;;11.05;64.95;101891.44;4966170;28;119647;-75
2022/11/27 09:55:01;;;;;;;38.28;24.77;;;;;;;11.05;65.41;101877.72;4981828;27;120311;-76
2022/11/27 09:57:37;;;;;;;33.55;21.92;;;;;;;11.04;65.30;101880.88;4981904;28;119702;-75
2022/11/27 10:00:21;;;;;;;33.58;21.45;;;;;;;11.05;64.97;101885.16;4983079;28;119399;-76
2022/11/27 10:02:47;;;;;;;34.35;21.08;;;;;;;10.93;63.79;101867.38;4983459;28;119974;-76
2022/11/27 10:05:25;;;;;;;34.73;21.73;;;;;;;10.93;65.01;101875.63;4970586;28;119483;-75
2022/11/27 10:08:19;;;;;;;34.60;21.98;;;;;;;10.95;64.97;101878.72;4966955;28;119853;-75
2022/11/27 10:11:15;;;;;;;35.08;22.00;;;;;;;10.94;65.11;101874.44;4984392;28;120372;-75
2022/11/27 10:14:21;;;;;;;32.78;22.30;;;;;;;10.96;65.33;101869.28;4985820;28;120111;-75
2022/11/27 10:16:57;;;;;;;32.88;21.42;;;;;;;10.93;64.64;101869.34;4983831;28;119435;-75
2022/11/27 10:19:32;;;;;;;32.47;21.90;;;;;;;10.94;65.10;101874.44;4968362;28;119429;-75
2022/11/27 10:22:09;;;;;;;34.70;22.83;;;;;;;10.95;65.33;101873.22;4986776;28;120125;-76
2022/11/27 10:24:49;;;;;;;36.70;23.08;;;;;;;10.98;65.27;101872.38;4985360;28;119828;-76
2022/11/27 10:28:00;;;;;;;33.95;20.90;;;;;;;10.98;64.75;101866.88;4983841;28;120034;-75
2022/11/27 10:30:28;;;;;;;36.22;22.30;;;;;;;11.00;65.39;101856.25;4963761;28;120696;-75
2022/11/27 10:32:57;;;;;;;32.63;22.50;;;;;;;11.01;65.38;101855.03;4985201;28;120118;-75
2022/11/27 10:35:29;;;;;;;33.47;22.23;;;;;;;11.03;65.00;101843.63;4984105;28;120063;-75
2022/11/27 10:38:05;;;;;;;35.22;23.33;;;;;;;11.02;64.84;101848.34;4966784;28;119976;-75
2022/11/27 10:40:52;;;;;;;33.97;23.13;;;;;;;11.03;64.88;101836.19;4967516;28;119525;-75
2022/11/27 10:43:20;;;;;;;34.10;22.40;;;;;;;11.05;64.52;101843.97;4985665;28;119578;-76
2022/11/27 10:45:57;;;;;;;34.55;22.83;;;;;;;11.05;64.53;101833.78;4985280;28;119922;-75
2022/11/27 10:48:23;;;;;;;34.53;23.37;;;;;;;11.00;64.30;101828.78;4985615;28;119879;-75
2022/11/27 10:50:50;;;;;;;36.60;24.40;;;;;;;11.03;65.08;101840.88;4985863;28;119902;-76
2022/11/27 10:53:34;;;;;;;32.73;22.83;;;;;;;11.01;64.74;101835.81;4987962;28;120438;-75
2022/11/27 10:56:16;;;;;;;34.42;24.23;;;;;;;11.00;64.76;101834.28;4985756;28;119418;-75
2022/11/27 10:59:04;;;;;;;36.13;24.23;;;;;;;10.93;64.45;101825.44;4984123;28;119748;-75
2022/11/27 11:01:52;;;;;;;33.53;23.00;;;;;;;10.94;65.03;101825.00;4981262;28;119707;-75
2022/11/27 11:04:35;;;;;;;37.55;24.48;;;;;;;10.91;64.63;101825.84;4967758;28;119455;-75
2022/11/27 11:07:27;;;;;;;39.83;25.35;;;;;;;10.90;65.45;101810.59;4959710;28;119737;-75
2022/11/27 11:09:54;;;;;;;33.83;25.05;;;;;;;10.91;64.92;101814.88;4981748;28;119766;-75
2022/11/27 11:12:22;;;;;;;35.28;24.90;;;;;;;10.89;65.00;101806.31;4981571;28;119463;-75